Time;durP1;ratioP1;P1;durP2;ratioP2;P2;SDS_P1;SDS_P2;PMS_P1;PMS_P2;Temp;Humidity;BMP_temperature;BMP_pressure;BME280_temperature;BME280_humidity;BME280_pressure;Samples;Min_cycle;Max_cycle;Signal;HPM_P1;HPM_P2
2023/12/06 00:00:22;;;;;;;15.73;7.90;;;1.20;99.90;;;;;;5124859;27;20035;-67
2023/12/06 00:02:49;;;;;;;20.05;7.82;;;1.20;99.90;;;;;;5118037;27;20049;-67
2023/12/06 00:05:15;;;;;;;15.45;7.45;;;1.20;99.90;;;;;;5119444;27;20039;-66
2023/12/06 00:07:41;;;;;;;18.38;8.20;;;1.20;99.90;;;;;;5114704;27;20046;-67
2023/12/06 00:10:08;;;;;;;16.23;7.75;;;1.20;99.90;;;;;;5109519;27;20047;-66
2023/12/06 00:12:33;;;;;;;20.85;9.05;;;1.20;99.90;;;;;;5110704;28;20049;-66
2023/12/06 00:14:59;;;;;;;19.63;8.82;;;1.20;99.90;;;;;;5090368;28;20118;-66
2023/12/06 00:17:26;;;;;;;14.95;8.48;;;1.20;99.90;;;;;;5110424;28;20042;-66
2023/12/06 00:19:52;;;;;;;19.10;9.00;;;1.20;99.90;;;;;;5109125;28;20499;-67
2023/12/06 00:22:18;;;;;;;15.57;9.48;;;1.20;99.90;;;;;;5110236;28;20038;-67
2023/12/06 00:24:43;;;;;;;19.20;7.88;;;1.20;99.90;;;;;;5093069;28;20544;-67
2023/12/06 00:27:09;;;;;;;26.88;9.80;;;1.20;99.90;;;;;;5107211;28;20111;-67
2023/12/06 00:29:35;;;;;;;19.85;9.48;;;1.20;99.90;;;;;;5110671;28;20104;-66
2023/12/06 00:32:01;;;;;;;22.98;8.82;;;1.20;99.90;;;;;;5106582;28;20375;-66
2023/12/06 00:34:26;;;;;;;22.27;9.82;;;1.20;99.90;;;;;;5109210;28;20423;-66
2023/12/06 00:36:52;;;;;;;21.30;9.20;;;1.20;99.90;;;;;;5110391;28;20031;-66
2023/12/06 00:39:18;;;;;;;23.75;10.40;;;1.20;99.90;;;;;;5105458;28;20039;-66
2023/12/06 00:41:43;;;;;;;15.95;8.63;;;1.20;99.90;;;;;;5110472;28;20031;-66
2023/12/06 00:44:09;;;;;;;16.10;8.68;;;1.20;99.90;;;;;;5110649;28;20411;-66
2023/12/06 00:46:36;;;;;;;19.58;8.90;;;1.20;99.90;;;;;;5087031;28;20058;-66
2023/12/06 00:49:03;;;;;;;20.08;9.38;;;1.20;99.90;;;;;;5091193;28;20073;-66
2023/12/06 00:51:29;;;;;;;17.73;8.93;;;1.20;99.90;;;;;;5091777;28;20039;-67
2023/12/06 00:53:55;;;;;;;21.25;9.25;;;1.20;99.90;;;;;;5110527;28;20035;-67
2023/12/06 00:56:21;;;;;;;11.68;7.25;;;1.20;99.90;;;;;;5093895;28;20188;-66
2023/12/06 00:58:47;;;;;;;21.35;10.07;;;1.20;99.90;;;;;;5110959;28;20039;-66
2023/12/06 01:01:13;;;;;;;13.85;7.68;;;1.20;99.90;;;;;;5109633;28;20031;-67
2023/12/06 01:03:42;;;;;;;20.75;9.13;;;1.20;99.90;;;;;;5109958;28;20423;-66
2023/12/06 01:06:08;;;;;;;17.02;8.07;;;1.30;99.90;;;;;;5108304;28;20062;-67
2023/12/06 01:08:34;;;;;;;18.67;9.23;;;1.30;99.90;;;;;;5109763;28;20055;-67
2023/12/06 01:11:00;;;;;;;18.55;9.02;;;1.30;99.90;;;;;;5090768;28;20071;-66
2023/12/06 01:13:26;;;;;;;20.27;9.88;;;1.30;99.90;;;;;;5109474;28;20066;-66
2023/12/06 01:15:51;;;;;;;17.98;10.07;;;1.40;99.90;;;;;;5100970;28;20472;-66
2023/12/06 01:18:17;;;;;;;22.77;9.43;;;1.40;99.90;;;;;;5109923;28;20062;-67
2023/12/06 01:20:43;;;;;;;19.88;8.40;;;1.40;99.90;;;;;;5092688;28;20092;-66
2023/12/06 01:23:09;;;;;;;13.40;7.72;;;1.40;99.90;;;;;;5109967;28;20035;-66
2023/12/06 01:25:35;;;;;;;18.55;8.10;;;1.40;99.90;;;;;;5108805;28;20031;-66
2023/12/06 01:28:01;;;;;;;15.55;7.60;;;1.50;99.90;;;;;;5105164;28;20051;-66
2023/12/06 01:30:26;;;;;;;17.77;8.27;;;1.50;99.90;;;;;;5105012;28;20493;-66
2023/12/06 01:32:52;;;;;;;14.02;8.02;;;1.50;99.90;;;;;;5096775;28;20074;-66
2023/12/06 01:35:21;;;;;;;15.80;7.93;;;1.50;99.90;;;;;;5113859;28;20054;-66
2023/12/06 01:37:47;;;;;;;12.60;7.30;;;1.50;99.90;;;;;;5111164;28;20541;-66
2023/12/06 01:40:14;;;;;;;13.13;8.57;;;1.50;99.90;;;;;;5109755;28;20043;-66
2023/12/06 01:42:40;;;;;;;17.90;9.32;;;1.50;99.90;;;;;;5095330;28;20364;-66
2023/12/06 01:45:06;;;;;;;14.57;7.78;;;1.50;99.90;;;;;;5113399;28;20044;-66
2023/12/06 01:47:49;;;;;;;10.63;6.38;;;1.60;99.90;;;;;;5113587;28;20521;-67
2023/12/06 01:50:15;;;;;;;15.35;8.40;;;1.60;99.90;;;;;;5110120;28;20467;-66
2023/12/06 01:52:41;;;;;;;16.08;7.28;;;1.60;99.90;;;;;;5096599;28;20040;-67
2023/12/06 01:55:08;;;;;;;13.43;7.15;;;1.60;99.90;;;;;;5113598;28;20047;-66
2023/12/06 01:57:36;;;;;;;14.05;7.30;;;1.70;99.90;;;;;;5113446;28;20372;-67
2023/12/06 02:00:03;;;;;;;16.40;8.63;;;1.60;99.90;;;;;;5111512;28;20405;-67
2023/12/06 02:02:30;;;;;;;18.13;7.60;;;1.70;99.90;;;;;;5113386;28;20092;-66
2023/12/06 02:04:56;;;;;;;21.15;6.95;;;1.70;99.90;;;;;;5113631;28;20063;-67
2023/12/06 02:07:23;;;;;;;17.23;9.15;;;1.70;99.90;;;;;;5113574;28;20454;-66
2023/12/06 02:09:49;;;;;;;20.67;8.25;;;1.70;99.90;;;;;;5091049;28;20472;-66
2023/12/06 02:12:15;;;;;;;16.92;7.15;;;1.70;99.90;;;;;;5113066;28;20054;-66
2023/12/06 02:14:40;;;;;;;15.43;7.15;;;1.80;99.90;;;;;;5111503;28;20531;-66
2023/12/06 02:17:07;;;;;;;14.48;7.30;;;1.70;99.90;;;;;;5113683;28;20118;-67
2023/12/06 02:19:34;;;;;;;14.32;6.57;;;1.80;99.90;;;;;;5093987;28;20044;-67
2023/12/06 02:22:00;;;;;;;12.77;6.20;;;1.80;99.90;;;;;;5113329;28;20032;-66
2023/12/06 02:24:29;;;;;;;9.35;5.68;;;1.80;99.90;;;;;;5113332;28;20035;-67
2023/12/06 02:26:55;;;;;;;14.93;6.32;;;1.80;99.90;;;;;;5107416;28;20050;-67
2023/12/06 02:29:24;;;;;;;12.43;6.82;;;1.80;99.90;;;;;;5094991;28;20039;-67
2023/12/06 02:31:50;;;;;;;12.85;7.50;;;1.80;99.90;;;;;;5111711;28;20384;-67
2023/12/06 02:34:22;;;;;;;11.75;6.63;;;1.80;99.90;;;;;;5110020;28;20071;-67
2023/12/06 02:36:50;;;;;;;10.25;6.57;;;1.80;99.90;;;;;;5112805;28;20399;-67
2023/12/06 02:39:17;;;;;;;14.25;5.85;;;1.80;99.90;;;;;;5112842;28;20035;-67
2023/12/06 02:41:43;;;;;;;9.25;5.20;;;1.80;99.90;;;;;;5112261;28;20481;-67
2023/12/06 02:44:09;;;;;;;11.60;6.22;;;1.80;99.90;;;;;;5108769;28;20031;-67
2023/12/06 02:46:36;;;;;;;18.67;7.07;;;1.80;99.90;;;;;;5112409;28;20122;-67
2023/12/06 02:49:05;;;;;;;10.13;5.15;;;1.80;99.90;;;;;;5113030;28;20481;-67
2023/12/06 02:51:31;;;;;;;12.02;7.53;;;1.80;99.90;;;;;;5108617;28;20051;-66
2023/12/06 02:53:57;;;;;;;12.50;6.25;;;1.80;99.90;;;;;;5112373;28;20032;-67
2023/12/06 02:56:23;;;;;;;14.57;7.05;;;1.80;99.90;;;;;;5108729;28;20040;-67
2023/12/06 02:58:49;;;;;;;13.07;6.50;;;1.80;99.90;;;;;;5112408;28;20035;-67
2023/12/06 03:01:15;;;;;;;14.98;7.30;;;1.80;99.90;;;;;;5112077;28;20035;-67
2023/12/06 03:03:41;;;;;;;14.77;6.28;;;1.80;99.90;;;;;;5108208;28;20104;-66
2023/12/06 03:06:06;;;;;;;9.55;5.32;;;1.80;99.90;;;;;;5112303;28;20039;-67
2023/12/06 03:08:32;;;;;;;13.30;5.07;;;1.80;99.90;;;;;;5111392;28;20043;-67
2023/12/06 03:10:58;;;;;;;13.32;6.13;;;1.80;99.90;;;;;;5111649;28;20056;-67
2023/12/06 03:13:24;;;;;;;14.30;5.80;;;1.90;99.90;;;;;;5112296;28;20035;-67
2023/12/06 03:15:49;;;;;;;15.35;7.88;;;1.90;99.90;;;;;;5111397;28;20050;-68
2023/12/06 03:18:15;;;;;;;11.32;5.85;;;1.90;99.90;;;;;;5095463;28;20056;-66
2023/12/06 03:20:41;;;;;;;11.35;6.55;;;1.90;99.90;;;;;;5111804;28;20133;-67
2023/12/06 03:23:07;;;;;;;14.48;6.88;;;1.90;99.90;;;;;;5111707;28;20043;-67
2023/12/06 03:25:32;;;;;;;9.48;5.45;;;1.90;99.90;;;;;;5106883;28;20059;-67
2023/12/06 03:27:58;;;;;;;11.20;5.93;;;1.90;99.90;;;;;;5107709;28;20078;-67
2023/12/06 03:30:24;;;;;;;10.60;5.63;;;1.90;99.90;;;;;;5109173;28;20423;-67
2023/12/06 03:32:51;;;;;;;12.88;7.60;;;1.90;99.90;;;;;;5107217;28;20055;-67
2023/12/06 03:35:17;;;;;;;11.55;5.60;;;2.00;99.90;;;;;;5111612;28;20039;-67
2023/12/06 03:37:43;;;;;;;10.75;6.28;;;2.00;99.90;;;;;;5112451;28;20045;-67
2023/12/06 03:40:09;;;;;;;13.50;6.18;;;2.00;99.90;;;;;;5090587;28;20031;-67
2023/12/06 03:42:35;;;;;;;8.45;4.22;;;1.90;99.90;;;;;;5107261;28;20042;-67
2023/12/06 03:45:00;;;;;;;9.15;4.90;;;1.90;99.90;;;;;;5111288;28;20039;-66
2023/12/06 03:47:26;;;;;;;11.10;6.22;;;2.00;99.90;;;;;;5109209;28;20126;-67
2023/12/06 03:49:53;;;;;;;11.18;6.03;;;2.00;99.90;;;;;;5109845;28;20043;-67
2023/12/06 03:52:18;;;;;;;11.07;5.35;;;2.00;99.90;;;;;;5111435;28;20436;-67
2023/12/06 03:54:44;;;;;;;8.77;4.93;;;2.00;99.90;;;;;;5110894;28;20077;-67
2023/12/06 03:57:10;;;;;;;12.75;6.45;;;1.90;99.90;;;;;;5111309;28;20065;-67
2023/12/06 03:59:36;;;;;;;9.43;5.97;;;2.00;99.90;;;;;;5111230;28;20052;-67
2023/12/06 04:02:02;;;;;;;11.45;5.88;;;2.00;99.90;;;;;;5094397;28;20046;-67
2023/12/06 04:04:28;;;;;;;12.85;5.72;;;2.00;99.90;;;;;;5111360;28;20051;-67
2023/12/06 04:06:54;;;;;;;9.20;5.80;;;2.00;99.90;;;;;;5107284;28;20491;-67
2023/12/06 04:09:20;;;;;;;10.38;4.75;;;2.00;99.90;;;;;;5111073;28;20046;-67
2023/12/06 04:11:46;;;;;;;14.48;6.57;;;2.00;99.90;;;;;;5125095;27;20047;-67
2023/12/06 04:14:11;;;;;;;11.85;7.18;;;2.00;99.90;;;;;;5115917;27;20066;-67
2023/12/06 04:16:37;;;;;;;12.82;6.18;;;2.00;99.90;;;;;;5094913;27;20121;-67
2023/12/06 04:19:03;;;;;;;11.02;5.93;;;2.00;99.90;;;;;;5119683;27;20088;-67
2023/12/06 04:21:29;;;;;;;13.38;6.07;;;2.00;99.90;;;;;;5118306;27;20085;-67
2023/12/06 04:23:55;;;;;;;11.13;6.20;;;2.10;99.90;;;;;;5116163;27;20084;-67
2023/12/06 04:26:21;;;;;;;10.73;5.13;;;2.10;99.90;;;;;;5110271;27;20035;-67
2023/12/06 04:28:47;;;;;;;14.10;5.90;;;2.10;99.90;;;;;;5119373;27;20455;-67
2023/12/06 04:31:13;;;;;;;9.50;5.15;;;2.10;99.90;;;;;;5093048;27;20110;-67
2023/12/06 04:33:40;;;;;;;9.25;5.20;;;2.10;99.90;;;;;;5117278;27;20079;-67
2023/12/06 04:36:06;;;;;;;12.65;5.22;;;2.10;99.90;;;;;;5121793;27;20058;-67
2023/12/06 04:38:32;;;;;;;10.23;4.90;;;2.10;99.90;;;;;;5116987;27;20078;-67
2023/12/06 04:40:58;;;;;;;13.07;5.78;;;2.10;99.90;;;;;;5119360;27;20084;-67
2023/12/06 04:43:24;;;;;;;12.77;5.30;;;2.20;99.90;;;;;;5119105;27;20046;-67
2023/12/06 04:45:50;;;;;;;10.93;5.45;;;2.20;99.90;;;;;;5115273;27;20039;-67
2023/12/06 04:48:15;;;;;;;15.57;6.57;;;2.20;99.90;;;;;;5115742;27;20069;-67
2023/12/06 04:50:41;;;;;;;7.78;4.78;;;2.10;99.90;;;;;;5122159;27;20043;-67
2023/12/06 04:53:07;;;;;;;9.43;5.28;;;2.20;99.90;;;;;;5113880;27;20046;-67
2023/12/06 04:55:33;;;;;;;8.40;5.25;;;2.20;99.90;;;;;;5120349;27;20398;-67
2023/12/06 04:57:59;;;;;;;8.85;5.57;;;2.20;99.90;;;;;;5123707;27;20039;-67
2023/12/06 05:00:32;;;;;;;8.23;4.63;;;2.30;99.90;;;;;;5099987;27;20034;-67
2023/12/06 05:03:00;;;;;;;8.82;4.25;;;2.30;99.90;;;;;;5107975;27;20090;-67
2023/12/06 05:05:26;;;;;;;14.15;4.78;;;2.30;99.90;;;;;;5121982;27;20078;-67
2023/12/06 05:07:52;;;;;;;9.88;4.50;;;2.30;99.90;;;;;;5100853;27;20077;-67
2023/12/06 05:10:18;;;;;;;7.60;4.68;;;2.30;99.90;;;;;;5120535;27;20058;-67
2023/12/06 05:12:44;;;;;;;6.13;4.28;;;2.40;99.90;;;;;;5117673;27;20089;-67
2023/12/06 05:15:10;;;;;;;6.35;3.88;;;2.40;99.90;;;;;;5113434;27;20046;-67
2023/12/06 05:17:36;;;;;;;6.75;4.55;;;2.40;99.90;;;;;;5117914;27;20058;-67
2023/12/06 05:20:02;;;;;;;7.07;4.47;;;2.40;99.90;;;;;;5125233;28;20399;-67
2023/12/06 05:22:28;;;;;;;15.18;5.30;;;2.50;99.90;;;;;;5097158;28;20138;-67
2023/12/06 05:24:55;;;;;;;7.85;4.03;;;2.50;99.90;;;;;;5119535;28;20035;-67
2023/12/06 05:27:21;;;;;;;6.28;4.85;;;2.50;99.90;;;;;;5117579;28;20050;-67
2023/12/06 05:29:47;;;;;;;9.00;4.88;;;2.50;99.90;;;;;;5118057;28;20499;-67
2023/12/06 05:32:13;;;;;;;6.28;4.38;;;2.50;99.90;;;;;;5115951;28;20031;-68
2023/12/06 05:34:39;;;;;;;8.35;4.30;;;2.50;99.90;;;;;;5116935;28;20441;-67
2023/12/06 05:37:05;;;;;;;7.53;4.22;;;2.50;99.90;;;;;;5094473;28;20040;-67
2023/12/06 05:39:31;;;;;;;5.00;3.10;;;2.50;99.90;;;;;;5116859;28;20039;-67
2023/12/06 05:41:57;;;;;;;6.43;4.57;;;2.50;99.90;;;;;;5114796;28;20424;-67
2023/12/06 05:44:23;;;;;;;6.13;3.88;;;2.50;99.90;;;;;;5113851;28;20555;-67
2023/12/06 05:46:48;;;;;;;10.48;4.95;;;2.50;99.90;;;;;;5125041;28;20039;-67
2023/12/06 05:49:15;;;;;;;4.88;3.65;;;2.60;99.90;;;;;;5118274;28;20066;-67
2023/12/06 05:51:41;;;;;;;5.15;3.50;;;2.50;99.90;;;;;;5101828;28;20043;-67
2023/12/06 05:54:07;;;;;;;9.93;5.10;;;2.50;99.90;;;;;;5125221;28;20118;-67
2023/12/06 05:56:32;;;;;;;9.50;4.93;;;2.50;99.90;;;;;;5117590;28;20459;-67
2023/12/06 05:58:58;;;;;;;4.95;4.35;;;2.60;99.90;;;;;;5102188;28;20059;-67
2023/12/06 06:01:24;;;;;;;8.73;4.28;;;2.60;99.90;;;;;;5117217;28;20035;-67
2023/12/06 06:03:50;;;;;;;7.85;3.97;;;2.60;99.90;;;;;;5107380;28;20050;-67
2023/12/06 06:06:16;;;;;;;9.55;5.32;;;2.60;99.90;;;;;;5100104;28;20107;-67
2023/12/06 06:08:41;;;;;;;7.22;3.85;;;2.60;99.90;;;;;;5116582;28;20039;-67
2023/12/06 06:11:07;;;;;;;10.88;5.30;;;2.60;99.90;;;;;;5098434;28;20146;-67
2023/12/06 06:13:33;;;;;;;6.30;4.07;;;2.60;99.90;;;;;;5103151;28;20499;-67
2023/12/06 06:15:59;;;;;;;8.00;4.22;;;2.60;99.90;;;;;;5119582;28;20031;-67
2023/12/06 06:18:24;;;;;;;6.75;4.13;;;2.60;99.90;;;;;;5099205;27;20031;-67
2023/12/06 06:20:51;;;;;;;8.98;4.07;;;2.60;99.90;;;;;;5121483;27;20035;-68
2023/12/06 06:23:17;;;;;;;7.38;4.88;;;2.60;99.90;;;;;;5105993;27;20426;-68
2023/12/06 06:25:42;;;;;;;9.05;4.70;;;2.60;99.90;;;;;;5103889;27;20039;-68
2023/12/06 06:28:08;;;;;;;7.93;4.13;;;2.60;99.90;;;;;;5126923;27;20042;-68
2023/12/06 06:30:34;;;;;;;6.15;3.83;;;2.60;99.90;;;;;;5132537;27;20024;-68
2023/12/06 06:33:00;;;;;;;11.48;4.90;;;2.60;99.90;;;;;;5122605;27;20043;-68
2023/12/06 06:35:25;;;;;;;8.80;4.70;;;2.60;99.90;;;;;;5116105;27;20365;-67
2023/12/06 06:37:51;;;;;;;7.47;4.22;;;2.60;99.90;;;;;;5116422;27;20076;-68
2023/12/06 06:40:17;;;;;;;7.75;4.47;;;2.70;99.90;;;;;;5122032;27;20061;-67
2023/12/06 06:42:43;;;;;;;9.60;5.15;;;2.70;99.90;;;;;;5118827;27;20047;-67
2023/12/06 06:45:09;;;;;;;8.02;4.43;;;2.70;99.90;;;;;;5103003;27;20051;-67
2023/12/06 06:47:36;;;;;;;10.57;4.72;;;2.70;99.90;;;;;;5124459;27;20054;-68
2023/12/06 06:50:12;;;;;;;8.65;3.30;;;2.70;99.90;;;;;;5122614;27;20494;-68
2023/12/06 06:52:38;;;;;;;5.85;3.90;;;2.70;99.90;;;;;;5111783;27;20044;-67
2023/12/06 06:55:07;;;;;;;12.27;4.82;;;2.70;99.90;;;;;;5119122;27;20371;-68
2023/12/06 06:57:33;;;;;;;8.45;4.47;;;2.70;99.90;;;;;;5102887;27;20117;-67
2023/12/06 06:59:59;;;;;;;6.55;4.05;;;2.70;99.90;;;;;;5118827;27;20398;-68
2023/12/06 07:02:24;;;;;;;9.20;4.97;;;2.80;99.90;;;;;;5121746;27;20039;-67
2023/12/06 07:04:51;;;;;;;7.55;4.63;;;2.80;99.90;;;;;;5095331;27;20043;-67
2023/12/06 07:07:19;;;;;;;8.35;4.68;;;2.80;99.90;;;;;;5115892;27;20044;-67
2023/12/06 07:09:45;;;;;;;9.48;4.45;;;2.80;99.90;;;;;;5117388;27;20047;-68
2023/12/06 07:12:11;;;;;;;8.57;4.50;;;2.80;99.90;;;;;;5121865;27;20038;-68
2023/12/06 07:14:37;;;;;;;6.15;3.80;;;2.80;99.90;;;;;;5111638;27;20111;-68
2023/12/06 07:17:04;;;;;;;10.73;5.55;;;2.80;99.90;;;;;;5115460;27;20455;-67
2023/12/06 07:19:33;;;;;;;11.70;5.47;;;2.80;99.90;;;;;;5119853;27;20395;-68
2023/12/06 07:22:00;;;;;;;9.65;5.20;;;2.80;99.90;;;;;;5119745;27;20039;-68
2023/12/06 07:24:27;;;;;;;8.05;4.35;;;2.80;99.90;;;;;;5095523;27;20118;-67
2023/12/06 07:26:53;;;;;;;8.25;5.53;;;2.80;99.90;;;;;;5110264;27;20035;-67
2023/12/06 07:29:19;;;;;;;9.25;4.30;;;2.80;99.90;;;;;;5118637;27;20050;-68
2023/12/06 07:31:45;;;;;;;8.00;4.97;;;2.80;99.90;;;;;;5098954;27;20050;-67
2023/12/06 07:34:11;;;;;;;8.07;5.20;;;2.80;99.90;;;;;;5113894;27;20035;-68
2023/12/06 07:36:36;;;;;;;5.88;4.20;;;2.80;99.90;;;;;;5120288;27;20043;-68
2023/12/06 07:39:02;;;;;;;10.05;6.28;;;2.80;99.90;;;;;;5116817;27;20035;-68
2023/12/06 07:41:28;;;;;;;8.35;5.03;;;2.80;99.90;;;;;;5095336;27;20657;-68
2023/12/06 07:43:54;;;;;;;7.15;3.75;;;2.80;99.90;;;;;;5114100;27;20058;-68
2023/12/06 07:46:20;;;;;;;7.57;4.30;;;2.80;99.90;;;;;;5098993;27;20066;-68
2023/12/06 07:48:46;;;;;;;11.95;5.05;;;2.80;99.90;;;;;;5117898;27;20039;-68
2023/12/06 07:51:12;;;;;;;6.82;4.75;;;2.80;99.90;;;;;;5119981;27;20482;-67
2023/12/06 07:53:38;;;;;;;12.25;6.15;;;2.80;99.90;;;;;;5110098;27;20465;-68
2023/12/06 07:56:04;;;;;;;9.10;5.38;;;2.80;99.90;;;;;;5120449;27;20032;-68
2023/12/06 07:58:30;;;;;;;14.63;8.88;;;2.80;99.90;;;;;;5118851;27;20035;-68
2023/12/06 08:00:58;;;;;;;14.10;7.18;;;2.80;99.90;;;;;;5116146;27;20487;-67
2023/12/06 08:03:26;;;;;;;10.40;5.60;;;2.80;99.90;;;;;;5117561;27;20048;-68
2023/12/06 08:05:53;;;;;;;11.80;6.70;;;2.80;99.90;;;;;;5125854;27;20424;-68
2023/12/06 08:08:18;;;;;;;10.75;5.97;;;2.80;99.90;;;;;;5118540;27;20047;-68
2023/12/06 08:10:45;;;;;;;8.10;4.90;;;2.80;99.90;;;;;;5119355;27;20183;-67
2023/12/06 08:13:11;;;;;;;10.43;6.20;;;2.80;99.90;;;;;;5121081;27;20035;-68
2023/12/06 08:15:37;;;;;;;9.80;5.82;;;2.90;99.90;;;;;;5119431;27;20548;-68
2023/12/06 08:18:03;;;;;;;8.38;4.97;;;2.90;99.90;;;;;;5118494;27;20043;-67
2023/12/06 08:20:30;;;;;;;8.90;5.30;;;2.90;99.90;;;;;;5114899;27;20032;-68
2023/12/06 08:22:57;;;;;;;7.88;6.20;;;3.00;99.90;;;;;;5118467;27;20118;-67
2023/12/06 08:25:29;;;;;;;10.07;5.28;;;3.00;99.90;;;;;;5121333;27;20045;-67
2023/12/06 08:28:34;;;;;;;12.18;4.95;;;3.00;99.90;;;;;;5117215;27;20125;-67
2023/12/06 08:31:08;;;;;;;12.18;4.93;;;3.00;99.90;;;;;;5120130;27;20035;-67
2023/12/06 08:33:35;;;;;;;9.48;4.85;;;3.00;99.90;;;;;;5106755;27;20034;-68
2023/12/06 08:36:02;;;;;;;10.25;5.22;;;3.10;99.90;;;;;;5120683;27;20140;-67
2023/12/06 08:38:33;;;;;;;10.30;6.60;;;3.10;99.90;;;;;;5101251;27;20062;-67
2023/12/06 08:41:05;;;;;;;10.38;4.30;;;3.10;99.90;;;;;;5109748;27;20039;-67
2023/12/06 08:43:37;;;;;;;7.47;4.05;;;3.10;99.90;;;;;;5117944;27;20078;-67
2023/12/06 08:46:04;;;;;;;11.95;5.13;;;3.10;99.90;;;;;;5103731;27;20050;-67
2023/12/06 08:48:32;;;;;;;7.03;4.38;;;3.20;99.90;;;;;;5116375;27;20490;-68
2023/12/06 08:51:03;;;;;;;7.30;5.00;;;3.20;99.90;;;;;;5117361;27;20043;-67
2023/12/06 08:53:42;;;;;;;7.20;3.65;;;3.20;99.90;;;;;;5118852;27;20658;-68
2023/12/06 08:56:08;;;;;;;8.63;5.85;;;3.20;99.90;;;;;;5116465;27;20098;-67
2023/12/06 08:58:34;;;;;;;8.60;4.07;;;3.30;99.90;;;;;;5100848;27;20034;-67
2023/12/06 09:00:59;;;;;;;8.93;4.50;;;3.30;99.90;;;;;;5118842;27;20495;-67
2023/12/06 09:03:25;;;;;;;12.75;4.95;;;3.30;99.90;;;;;;5121180;27;20559;-67
2023/12/06 09:05:51;;;;;;;11.43;5.53;;;3.30;99.90;;;;;;5106925;27;20043;-67
2023/12/06 09:08:16;;;;;;;8.25;4.28;;;3.30;99.90;;;;;;5108955;27;20038;-67
2023/12/06 09:10:42;;;;;;;6.93;4.35;;;3.40;99.90;;;;;;5117078;27;20173;-68
2023/12/06 09:13:08;;;;;;;10.63;4.63;;;3.40;99.90;;;;;;5100570;27;20046;-67
2023/12/06 09:15:34;;;;;;;12.50;4.45;;;3.40;99.90;;;;;;5099057;27;20064;-67
2023/12/06 09:18:00;;;;;;;10.65;4.47;;;3.50;99.90;;;;;;5116917;27;20039;-67
2023/12/06 09:20:25;;;;;;;10.30;5.80;;;3.50;99.90;;;;;;5115414;28;20049;-67
2023/12/06 09:22:51;;;;;;;9.82;5.95;;;3.50;99.90;;;;;;5108582;28;20121;-67
2023/12/06 09:25:17;;;;;;;9.95;5.20;;;3.50;99.90;;;;;;5114362;28;20051;-68
2023/12/06 09:27:43;;;;;;;9.90;5.30;;;3.50;99.90;;;;;;5112384;28;20134;-67
2023/12/06 09:30:09;;;;;;;9.05;4.63;;;3.50;99.90;;;;;;5119265;28;20122;-68
2023/12/06 09:32:35;;;;;;;7.75;4.53;;;3.60;99.90;;;;;;5119956;28;20384;-67
2023/12/06 09:35:02;;;;;;;11.50;5.03;;;3.60;99.90;;;;;;5120346;28;20046;-67
2023/12/06 09:37:28;;;;;;;6.65;4.35;;;3.60;99.90;;;;;;5119288;28;20041;-68
2023/12/06 09:39:54;;;;;;;10.05;5.20;;;3.60;99.90;;;;;;5109056;28;20467;-67
2023/12/06 09:42:21;;;;;;;9.70;4.55;;;3.70;99.90;;;;;;5113258;28;20126;-68
2023/12/06 09:44:46;;;;;;;7.32;4.65;;;3.60;99.90;;;;;;5120000;28;20529;-68
2023/12/06 09:47:13;;;;;;;11.63;5.20;;;3.70;99.90;;;;;;5113948;28;20038;-67
2023/12/06 09:49:38;;;;;;;7.95;3.63;;;3.70;99.90;;;;;;5120535;28;20035;-68
2023/12/06 09:52:18;;;;;;;7.00;3.75;;;3.70;99.90;;;;;;5122475;27;20114;-68
2023/12/06 09:54:46;;;;;;;7.28;4.00;;;3.70;99.90;;;;;;5118622;27;20071;-67
2023/12/06 09:57:12;;;;;;;7.45;4.18;;;3.70;99.90;;;;;;5113177;27;20114;-68
2023/12/06 09:59:40;;;;;;;7.88;4.40;;;3.80;99.90;;;;;;5124386;27;20448;-68
2023/12/06 10:02:06;;;;;;;8.00;4.30;;;3.80;99.90;;;;;;5117991;27;20070;-68
2023/12/06 10:04:33;;;;;;;11.95;4.95;;;3.80;99.90;;;;;;5124580;27;20051;-67
2023/12/06 10:07:00;;;;;;;9.35;5.25;;;3.80;99.90;;;;;;5102608;27;20080;-67
2023/12/06 10:09:26;;;;;;;7.82;5.63;;;3.80;99.90;;;;;;5118960;27;20035;-68
2023/12/06 10:11:52;;;;;;;13.65;5.63;;;3.90;99.90;;;;;;5119376;27;20035;-68
2023/12/06 10:14:19;;;;;;;8.15;5.28;;;3.90;99.90;;;;;;5125088;27;20031;-68
2023/12/06 10:16:48;;;;;;;18.25;6.75;;;3.90;99.90;;;;;;5125723;27;20091;-68
2023/12/06 10:19:22;;;;;;;10.27;4.37;;;3.90;99.90;;;;;;5121697;27;20039;-67
2023/12/06 10:21:49;;;;;;;21.58;9.15;;;4.00;99.90;;;;;;5092571;27;20078;-68
2023/12/06 10:24:15;;;;;;;12.10;6.18;;;4.00;99.90;;;;;;5121187;27;20087;-68
2023/12/06 10:26:41;;;;;;;9.40;5.47;;;4.00;99.90;;;;;;5102786;27;20047;-68
2023/12/06 10:29:06;;;;;;;18.08;6.53;;;4.00;99.90;;;;;;5122410;27;20044;-67
2023/12/06 10:31:42;;;;;;;11.32;5.72;;;4.00;99.90;;;;;;5117787;27;20077;-68
2023/12/06 10:34:09;;;;;;;8.02;4.88;;;4.00;99.90;;;;;;5120465;27;20043;-68
2023/12/06 10:36:38;;;;;;;10.07;5.28;;;4.00;99.90;;;;;;5119754;27;20406;-68
2023/12/06 10:39:11;;;;;;;6.53;3.43;;;4.10;99.90;;;;;;5118631;27;20506;-67
2023/12/06 10:41:42;;;;;;;5.25;3.75;;;4.10;99.90;;;;;;5117737;27;20304;-67
2023/12/06 10:44:10;;;;;;;7.05;4.13;;;4.10;99.90;;;;;;5114304;27;20050;-67
2023/12/06 10:46:39;;;;;;;10.43;5.30;;;4.10;99.90;;;;;;5117649;27;20039;-67
2023/12/06 10:49:07;;;;;;;6.95;4.13;;;4.10;99.90;;;;;;5112821;27;20035;-68
2023/12/06 10:51:35;;;;;;;7.00;3.42;;;4.10;99.90;;;;;;5120554;27;20517;-68
2023/12/06 10:54:01;;;;;;;6.05;3.35;;;4.20;99.90;;;;;;5118991;27;20062;-68
2023/12/06 10:56:28;;;;;;;3.85;2.60;;;4.20;99.90;;;;;;5118364;27;20379;-68
2023/12/06 10:58:56;;;;;;;7.95;3.22;;;4.20;99.90;;;;;;5121184;27;20123;-68
2023/12/06 11:01:24;;;;;;;7.93;3.38;;;4.20;99.90;;;;;;5110090;27;20039;-68
2023/12/06 11:03:52;;;;;;;5.00;2.92;;;4.20;99.90;;;;;;5114259;27;20666;-69
2023/12/06 11:06:58;;;;;;;5.10;2.75;;;4.20;99.90;;;;;;5117060;27;20089;-69
2023/12/06 11:09:25;;;;;;;5.80;3.45;;;4.20;99.90;;;;;;5119435;27;20045;-69
2023/12/06 11:12:06;;;;;;;4.95;2.70;;;4.20;99.90;;;;;;5114382;27;20118;-69
2023/12/06 11:14:56;;;;;;;7.53;2.78;;;4.30;99.90;;;;;;5113421;27;20043;-69
2023/12/06 11:17:53;;;;;;;6.68;3.60;;;4.30;99.90;;;;;;5113514;27;20694;-69
2023/12/06 11:20:20;;;;;;;5.47;2.83;;;4.40;99.90;;;;;;5111138;27;20084;-71
2023/12/06 11:22:46;;;;;;;4.85;2.63;;;4.40;99.90;;;;;;5117831;27;20046;-71
2023/12/06 11:25:14;;;;;;;5.88;2.78;;;4.50;99.90;;;;;;5107706;27;20023;-71
2023/12/06 11:27:43;;;;;;;3.97;2.97;;;4.50;99.90;;;;;;5134174;27;20035;-72
2023/12/06 11:30:16;;;;;;;4.88;2.63;;;4.50;99.90;;;;;;5133556;27;20039;-72
2023/12/06 11:32:43;;;;;;;6.10;3.80;;;4.50;99.90;;;;;;5117270;27;20121;-72
2023/12/06 11:35:09;;;;;;;3.88;2.60;;;4.50;99.90;;;;;;5103491;27;20042;-72
2023/12/06 11:37:35;;;;;;;7.55;3.53;;;4.50;99.90;;;;;;5134205;27;20034;-71
2023/12/06 11:40:18;;;;;;;7.63;3.95;;;4.50;99.90;;;;;;5127655;27;20458;-72
2023/12/06 11:42:58;;;;;;;8.85;3.78;;;4.50;99.90;;;;;;5124181;27;20047;-72
2023/12/06 11:45:25;;;;;;;;;;;4.50;99.90;;;;;;5117953;27;20043;-72
2023/12/06 11:47:52;;;;;;;4.65;3.05;;;4.60;99.90;;;;;;5122637;27;19923;-72
2023/12/06 11:50:19;;;;;;;8.57;4.35;;;4.60;99.90;;;;;;5115273;27;20058;-72
2023/12/06 11:52:49;;;;;;;5.88;3.35;;;4.60;99.90;;;;;;5097444;27;20051;-72
2023/12/06 11:55:19;;;;;;;7.32;4.47;;;4.60;99.90;;;;;;5112252;27;20035;-72
2023/12/06 11:58:20;;;;;;;;;;;4.70;99.90;;;;;;5105149;27;20038;-72
2023/12/06 12:00:51;;;;;;;8.25;4.65;;;4.70;99.90;;;;;;5039222;28;20010;-72
2023/12/06 12:03:17;;;;;;;4.85;2.75;;;4.70;99.90;;;;;;5104163;27;20055;-72
2023/12/06 12:05:44;;;;;;;5.65;4.40;;;4.70;99.90;;;;;;5116576;27;20046;-72
2023/12/06 12:08:14;;;;;;;4.90;3.55;;;4.70;99.90;;;;;;5114247;27;20394;-72
2023/12/06 12:10:43;;;;;;;;;;;4.70;99.90;;;;;;5126204;27;20066;-72
2023/12/06 12:13:19;;;;;;;7.93;3.65;;;4.80;99.90;;;;;;5109460;27;19982;-72
2023/12/06 12:16:00;;;;;;;5.22;2.53;;;4.80;99.90;;;;;;5098007;27;20039;-72
2023/12/06 12:18:26;;;;;;;5.78;3.10;;;4.80;99.90;;;;;;5122682;27;20357;-72
2023/12/06 12:20:53;;;;;;;4.18;2.17;;;4.70;99.90;;;;;;5119519;27;20147;-72
2023/12/06 12:23:18;;;;;;;6.70;3.10;;;4.70;99.90;;;;;;5116930;27;20043;-72
2023/12/06 12:25:52;;;;;;;4.13;2.88;;;4.80;99.90;;;;;;5093260;27;20054;-72
2023/12/06 12:28:20;;;;;;;5.55;3.15;;;4.70;99.90;;;;;;5113232;27;20035;-72
2023/12/06 12:30:50;;;;;;;4.32;2.72;;;4.70;99.90;;;;;;5113239;27;20127;-72
2023/12/06 12:33:17;;;;;;;9.10;4.03;;;4.70;99.90;;;;;;5108907;27;20764;-72
2023/12/06 12:35:43;;;;;;;7.28;4.00;;;4.70;99.90;;;;;;5104987;27;20046;-72
2023/12/06 12:38:09;;;;;;;9.00;4.55;;;4.70;99.90;;;;;;5108055;27;20046;-72
2023/12/06 12:40:35;;;;;;;7.68;4.72;;;4.80;99.90;;;;;;5101938;27;20127;-72
2023/12/06 12:43:02;;;;;;;10.60;5.85;;;4.80;99.90;;;;;;5105485;27;20047;-72
2023/12/06 12:45:28;;;;;;;8.35;4.28;;;4.80;99.90;;;;;;5107190;27;20059;-72
2023/12/06 12:47:55;;;;;;;10.00;4.80;;;4.80;99.90;;;;;;5117884;27;20428;-71
2023/12/06 12:50:22;;;;;;;4.88;3.15;;;4.80;99.90;;;;;;5103481;27;20039;-71
2023/12/06 12:52:53;;;;;;;5.55;3.55;;;4.80;99.90;;;;;;5108143;27;20122;-72